createdAt,value
2022-12-06T00:05:09.763Z,6.27
2022-12-06T00:15:13.837Z,6.25
2022-12-06T00:25:16.606Z,6.29
2022-12-06T00:35:20.960Z,6.22
2022-12-06T00:45:23.623Z,6.10
2022-12-06T00:55:27.657Z,6.17
2022-12-06T01:05:30.558Z,6.16
2022-12-06T01:15:37.230Z,6.21
2022-12-06T01:25:39.938Z,6.14
2022-12-06T01:35:44.762Z,6.13
2022-12-06T01:45:47.587Z,6.08
2022-12-06T01:55:53.037Z,6.11
2022-12-06T02:05:57.367Z,6.05
2022-12-06T02:16:11.390Z,6.02
2022-12-06T02:26:25.205Z,6.10
2022-12-06T02:36:33.482Z,6.01
2022-12-06T02:46:39.200Z,5.94
2022-12-06T02:56:43.326Z,5.93
2022-12-06T03:07:06.239Z,5.99
2022-12-06T03:17:17.591Z,5.97
2022-12-06T03:27:24.027Z,6.00
2022-12-06T03:37:30.776Z,5.94
2022-12-06T03:47:38.227Z,5.92
2022-12-06T03:57:42.269Z,5.85
2022-12-06T04:07:44.999Z,5.85
2022-12-06T04:18:07.129Z,5.81
2022-12-06T04:28:27.832Z,5.82
2022-12-06T04:38:40.622Z,5.79
2022-12-06T04:48:43.715Z,5.77
2022-12-06T04:58:47.968Z,5.78
2022-12-06T05:08:50.650Z,5.78
2022-12-06T05:18:54.722Z,5.82
2022-12-06T05:28:57.968Z,5.76
2022-12-06T05:39:02.027Z,5.75
2022-12-06T05:49:04.739Z,5.84
2022-12-06T05:59:08.766Z,5.75
2022-12-06T06:09:11.457Z,5.72
2022-12-06T06:19:15.509Z,5.79
2022-12-06T06:29:18.193Z,5.81
2022-12-06T06:39:22.239Z,5.76
2022-12-06T06:49:25.106Z,5.72
2022-12-06T06:59:29.302Z,5.78
2022-12-06T07:09:32.464Z,5.69
2022-12-06T07:19:36.534Z,5.68
2022-12-06T07:29:39.323Z,5.54
2022-12-06T07:39:44.048Z,5.74
2022-12-06T07:49:46.772Z,5.71
2022-12-06T07:59:50.970Z,5.80
2022-12-06T08:09:54.320Z,5.81
2022-12-06T08:19:58.670Z,5.68
2022-12-06T08:30:01.797Z,5.61
2022-12-06T08:40:07.795Z,5.69
2022-12-06T08:50:10.977Z,5.69
2022-12-06T09:00:17.260Z,6.09
2022-12-06T09:10:20.301Z,6.04
2022-12-06T09:20:24.422Z,5.69
2022-12-06T09:30:27.575Z,5.77
2022-12-06T09:40:39.780Z,5.87
2022-12-06T09:50:58.416Z,5.78
2022-12-06T10:01:12.108Z,6.04
2022-12-06T10:11:25.207Z,5.93
2022-12-06T10:21:44.862Z,5.95
2022-12-06T10:31:57.744Z,6.56
2022-12-06T10:42:05.816Z,7.26
2022-12-06T10:52:20.944Z,7.23
2022-12-06T11:02:35.321Z,7.41
2022-12-06T11:12:40.371Z,7.71
2022-12-06T11:22:53.428Z,7.91
2022-12-06T11:32:56.550Z,8.21
2022-12-06T11:43:06.020Z,8.05
2022-12-06T11:53:17.777Z,7.97
2022-12-06T12:03:29.834Z,8.72
2022-12-06T12:13:45.709Z,8.02
2022-12-06T12:23:49.712Z,9.38
2022-12-06T12:34:19.160Z,11.41
2022-12-06T12:44:37.521Z,8.90
2022-12-06T12:54:41.303Z,9.84
2022-12-06T13:04:50.769Z,8.11
2022-12-06T13:15:06.298Z,8.85
2022-12-06T13:25:12.359Z,7.59
2022-12-06T13:35:24.719Z,9.81
2022-12-06T13:45:45.192Z,13.22
2022-12-06T13:55:59.696Z,10.55
2022-12-06T14:06:14.252Z,8.60
2022-12-06T14:16:23.122Z,7.89
2022-12-06T14:26:29.190Z,7.73
2022-12-06T14:36:35.017Z,7.56
2022-12-06T14:46:40.229Z,7.29
2022-12-06T14:56:45.121Z,6.94
2022-12-06T15:06:55.873Z,6.72
2022-12-06T15:17:01.362Z,6.42
2022-12-06T15:27:05.364Z,6.17
2022-12-06T15:37:37.529Z,6.07
2022-12-06T15:47:32.690Z,5.93
2022-12-06T15:57:35.343Z,5.76
2022-12-06T16:07:39.407Z,5.61
2022-12-06T16:17:42.320Z,5.49
2022-12-06T16:27:46.338Z,5.38
2022-12-06T16:37:49.010Z,5.48
2022-12-06T16:47:53.099Z,5.56
2022-12-06T16:57:55.765Z,5.52
2022-12-06T17:07:59.862Z,5.27
2022-12-06T17:18:02.583Z,5.09
2022-12-06T17:28:06.653Z,4.97
2022-12-06T17:38:09.283Z,5.04
2022-12-06T17:48:13.354Z,5.21
2022-12-06T17:58:16.044Z,5.37
2022-12-06T18:08:20.196Z,5.75
2022-12-06T18:18:22.915Z,5.79
2022-12-06T18:28:27.163Z,5.92
2022-12-06T18:38:30.274Z,5.99
2022-12-06T18:48:38.477Z,5.91
2022-12-06T18:58:41.587Z,5.85
2022-12-06T19:08:46.294Z,5.90
2022-12-06T19:18:49.213Z,5.92
2022-12-06T19:28:53.528Z,5.98
2022-12-06T19:38:56.641Z,5.89
2022-12-06T19:49:05.316Z,5.86
2022-12-06T19:59:12.053Z,5.84
2022-12-06T20:09:17.133Z,5.87
2022-12-06T20:19:20.871Z,5.78
2022-12-06T20:29:27.241Z,5.54
2022-12-06T20:39:29.954Z,5.62
2022-12-06T20:49:34.055Z,5.54
2022-12-06T20:59:37.461Z,5.66
2022-12-06T21:09:41.609Z,5.65
2022-12-06T21:19:44.344Z,5.55
2022-12-06T21:29:48.424Z,5.60
2022-12-06T21:39:51.136Z,5.65
2022-12-06T21:49:55.526Z,5.54
2022-12-06T21:59:58.465Z,5.52
2022-12-06T22:10:03.377Z,5.50
2022-12-06T22:20:07.889Z,5.22
2022-12-06T22:30:12.709Z,5.18
2022-12-06T22:40:15.514Z,5.25
2022-12-06T22:50:19.712Z,5.38
2022-12-06T23:00:22.374Z,5.11
2022-12-06T23:10:26.447Z,4.91
2022-12-06T23:20:29.147Z,4.86
2022-12-06T23:30:33.558Z,4.66
2022-12-06T23:40:36.248Z,4.51
2022-12-06T23:50:40.316Z,4.52
